Time;durP1;ratioP1;P1;durP2;ratioP2;P2;SDS_P1;SDS_P2;PMS_P1;PMS_P2;Temp;Humidity;BMP_temperature;BMP_pressure;BME280_temperature;BME280_humidity;BME280_pressure;Samples;Min_cycle;Max_cycle;Signal;HPM_P1;HPM_P2
2024/03/02 09:19:19;;;;;;;17.70;15.80;;;;;;;;;;5049017;27;20384;-78
2024/03/02 09:21:45;;;;;;;17.97;15.50;;;;;;;;;;5026695;28;20657;-78
2024/03/02 09:24:11;;;;;;;15.50;13.80;;;;;;;;;;5022723;28;20244;-78
2024/03/02 09:26:36;;;;;;;16.93;14.10;;;;;;;;;;4975792;28;20713;-77
2024/03/02 09:29:02;;;;;;;14.87;13.27;;;;;;;;;;5006065;28;20240;-77
2024/03/02 09:31:28;;;;;;;15.10;13.20;;;;;;;;;;4978115;28;20231;-77
2024/03/02 09:33:53;;;;;;;14.83;13.33;;;;;;;;;;4994274;28;20789;-79
2024/03/02 09:36:21;;;;;;;15.20;13.60;;;;;;;;;;4989155;28;20259;-77
2024/03/02 09:38:46;;;;;;;15.10;13.30;;;;;;;;;;5006348;28;20707;-78
2024/03/02 09:41:17;;;;;;;14.13;12.00;;;;;;;;;;5009431;28;20825;-77
2024/03/02 09:43:43;;;;;;;14.93;12.47;;;;;;;;;;5038767;28;20954;-78
2024/03/02 09:46:09;;;;;;;14.50;11.87;;;;;;;;;;5027710;28;20255;-78
2024/03/02 09:48:34;;;;;;;12.83;11.53;;;;;;;;;;4988851;28;21005;-77
2024/03/02 09:51:03;;;;;;;14.00;11.87;;;;;;;;;;4990536;28;20239;-77
2024/03/02 09:53:35;;;;;;;12.57;11.27;;;;;;;;;;4987677;28;20544;-76
2024/03/02 09:56:01;;;;;;;12.00;10.80;;;;;;;;;;4990290;28;20221;-77
2024/03/02 09:58:31;;;;;;;12.93;11.37;;;;;;;;;;5001616;28;20241;-76
2024/03/02 10:01:02;;;;;;;14.33;11.60;;;;;;;;;;4977847;28;20303;-77
2024/03/02 10:03:32;;;;;;;12.97;11.60;;;;;;;;;;5005289;28;20221;-77
2024/03/02 10:06:18;;;;;;;12.13;10.67;;;;;;;;;;4989377;28;20467;-76
2024/03/02 10:08:44;;;;;;;12.37;11.07;;;;;;;;;;5002595;28;20639;-77
2024/03/02 10:11:27;;;;;;;11.73;10.43;;;;;;;;;;5032158;28;20858;-78
2024/03/02 10:14:12;;;;;;;12.73;11.43;;;;;;;;;;5033946;28;20355;-77
2024/03/02 10:16:39;;;;;;;12.13;10.73;;;;;;;;;;5024037;28;20248;-75
2024/03/02 10:19:20;;;;;;;11.40;10.23;;;;;;;;;;4989292;28;20240;-77
2024/03/02 10:21:52;;;;;;;11.38;10.18;;;;;;;;;;5020783;28;20683;-77
2024/03/02 10:24:18;;;;;;;12.65;10.27;;;;;;;;;;5018309;28;20221;-77
2024/03/02 10:26:46;;;;;;;13.93;10.65;;;;;;;;;;4990334;28;20247;-76
2024/03/02 10:29:12;;;;;;;11.23;10.03;;;;;;;;;;4980268;28;20230;-77
2024/03/02 10:31:41;;;;;;;11.80;9.80;;;;;;;;;;4977081;28;20554;-76
2024/03/02 10:34:15;;;;;;;10.77;9.68;;;;;;;;;;5006745;28;20394;-77
2024/03/02 10:36:45;;;;;;;11.85;9.75;;;;;;;;;;4977258;28;20221;-77
2024/03/02 10:39:13;;;;;;;10.80;9.55;;;;;;;;;;5007519;28;20228;-77
2024/03/02 10:41:41;;;;;;;11.32;9.68;;;;;;;;;;4986389;28;20232;-77
2024/03/02 10:44:08;;;;;;;11.25;10.15;;;;;;;;;;4959954;28;20256;-76
2024/03/02 10:46:37;;;;;;;10.93;9.80;;;;;;;;;;4986460;28;20248;-77
2024/03/02 10:49:08;;;;;;;10.50;9.40;;;;;;;;;;4990585;28;20880;-76
2024/03/02 10:51:36;;;;;;;11.73;9.37;;;;;;;;;;4986431;28;20300;-76
2024/03/02 10:54:06;;;;;;;9.80;8.75;;;;;;;;;;4993721;28;20214;-76
2024/03/02 10:56:33;;;;;;;11.48;8.90;;;;;;;;;;4975811;28;20225;-77
2024/03/02 10:59:06;;;;;;;9.20;8.02;;;;;;;;;;5010300;28;20806;-77
2024/03/02 11:01:32;;;;;;;9.68;8.18;;;;;;;;;;5022431;28;20643;-77
2024/03/02 11:03:58;;;;;;;9.20;8.25;;;;;;;;;;4994109;28;20230;-77
2024/03/02 11:06:24;;;;;;;9.50;8.50;;;;;;;;;;4988536;28;20798;-80
2024/03/02 11:08:54;;;;;;;8.48;7.60;;;;;;;;;;4990655;28;20311;-77
2024/03/02 11:11:22;;;;;;;9.43;8.18;;;;;;;;;;4971487;28;20221;-77
2024/03/02 11:13:50;;;;;;;8.57;7.72;;;;;;;;;;4977456;28;20224;-76
2024/03/02 11:16:35;;;;;;;8.82;7.93;;;;;;;;;;4989764;28;20225;-76
2024/03/02 11:19:13;;;;;;;9.70;8.70;;;;;;;;;;4988993;28;20326;-76
2024/03/02 11:21:41;;;;;;;9.65;8.63;;;;;;;;;;4980719;28;20221;-76
2024/03/02 11:24:22;;;;;;;12.10;9.50;;;;;;;;;;4984780;28;20243;-76
2024/03/02 11:26:47;;;;;;;9.73;8.73;;;;;;;;;;5004132;28;20757;-79
2024/03/02 11:29:38;;;;;;;10.65;9.20;;;;;;;;;;5005470;28;20230;-76
2024/03/02 11:32:06;;;;;;;10.10;9.10;;;;;;;;;;5002760;28;20241;-77
2024/03/02 11:34:35;;;;;;;11.13;9.10;;;;;;;;;;4990803;28;20221;-76
2024/03/02 11:37:01;;;;;;;10.48;9.00;;;;;;;;;;5007506;28;20287;-77
2024/03/02 11:39:27;;;;;;;11.38;9.73;;;;;;;;;;5006353;28;20304;-77
2024/03/02 11:41:55;;;;;;;10.57;9.38;;;;;;;;;;4988144;28;20796;-77
2024/03/02 11:44:29;;;;;;;9.88;8.88;;;;;;;;;;4990992;28;20229;-77
2024/03/02 11:47:02;;;;;;;10.60;9.15;;;;;;;;;;5011811;28;20241;-76
2024/03/02 11:49:43;;;;;;;11.52;9.35;;;;;;;;;;4972292;28;20253;-77
2024/03/02 11:52:17;;;;;;;10.35;9.25;;;;;;;;;;5008246;28;20225;-76
2024/03/02 11:54:46;;;;;;;11.25;10.05;;;;;;;;;;4986163;28;20316;-77
2024/03/02 11:57:16;;;;;;;10.20;8.63;;;;;;;;;;4955192;28;20221;-77
2024/03/02 11:59:42;;;;;;;10.90;9.02;;;;;;;;;;4956785;28;20640;-77
2024/03/02 12:02:16;;;;;;;9.48;8.57;;;;;;;;;;4968697;28;20229;-77
2024/03/02 12:04:43;;;;;;;10.63;9.15;;;;;;;;;;4988800;28;20240;-77
2024/03/02 12:07:08;;;;;;;9.70;8.70;;;;;;;;;;4969026;28;20834;-77
2024/03/02 12:09:36;;;;;;;10.35;8.80;;;;;;;;;;4970386;28;20229;-77
2024/03/02 12:12:06;;;;;;;10.57;8.88;;;;;;;;;;5021983;28;20227;-77
2024/03/02 12:14:35;;;;;;;10.77;8.33;;;;;;;;;;4996387;28;20232;-77
2024/03/02 12:17:04;;;;;;;10.02;8.73;;;;;;;;;;4978734;28;20256;-77
2024/03/02 12:19:29;;;;;;;9.27;8.32;;;;;;;;;;4992786;28;20233;-77
2024/03/02 12:21:58;;;;;;;10.48;8.05;;;;;;;;;;5006680;28;20227;-78
2024/03/02 12:24:26;;;;;;;8.63;7.68;;;;;;;;;;5016702;28;20228;-76
2024/03/02 12:26:54;;;;;;;9.88;7.85;;;;;;;;;;4990814;28;20342;-77
2024/03/02 12:29:22;;;;;;;10.32;8.65;;;;;;;;;;4978742;28;20263;-76
2024/03/02 12:31:48;;;;;;;11.80;8.52;;;;;;;;;;4969353;28;20232;-77
2024/03/02 12:34:15;;;;;;;9.20;7.80;;;;;;;;;;4971690;28;20218;-77
2024/03/02 12:36:43;;;;;;;9.05;8.10;;;;;;;;;;5013795;28;20255;-79
2024/03/02 12:39:11;;;;;;;11.30;8.85;;;;;;;;;;5007796;28;20851;-79
2024/03/02 12:41:42;;;;;;;8.97;8.07;;;;;;;;;;5003558;28;20688;-79
2024/03/02 12:44:10;;;;;;;10.32;8.20;;;;;;;;;;5011964;28;20233;-78
2024/03/02 12:46:38;;;;;;;9.52;8.25;;;;;;;;;;5021735;28;20268;-79
2024/03/02 12:49:11;;;;;;;9.27;8.00;;;;;;;;;;4989732;28;20484;-78
2024/03/02 12:51:40;;;;;;;15.32;13.75;;;;;;;;;;4990168;28;20279;-80
2024/03/02 12:54:11;;;;;;;9.73;8.60;;;;;;;;;;5008388;28;20237;-81
2024/03/02 12:56:45;;;;;;;8.57;7.68;;;;;;;;;;4984597;28;20237;-77
2024/03/02 12:59:21;;;;;;;7.82;7.03;;;;;;;;;;4975609;28;20229;-76
2024/03/02 13:01:57;;;;;;;7.60;6.80;;;;;;;;;;4973031;28;20733;-77
2024/03/02 13:04:25;;;;;;;7.80;7.00;;;;;;;;;;4985701;28;20602;-77
2024/03/02 13:06:51;;;;;;;8.00;7.00;;;;;;;;;;4935172;28;20256;-77
2024/03/02 13:09:17;;;;;;;7.35;6.55;;;;;;;;;;4996533;28;20983;-77
2024/03/02 13:11:45;;;;;;;9.02;7.45;;;;;;;;;;5001372;28;20213;-76
2024/03/02 13:14:10;;;;;;;7.57;6.30;;;;;;;;;;5019071;28;20220;-76
2024/03/02 13:16:40;;;;;;;6.70;6.00;;;;;;;;;;4970946;28;20595;-76
2024/03/02 13:19:11;;;;;;;7.88;6.13;;;;;;;;;;4970659;28;20233;-76
2024/03/02 13:21:37;;;;;;;6.88;6.07;;;;;;;;;;5017797;28;20213;-77
2024/03/02 13:24:05;;;;;;;6.68;5.72;;;;;;;;;;4963529;28;20652;-77
2024/03/02 13:26:34;;;;;;;6.15;5.50;;;;;;;;;;4991169;28;20233;-77
2024/03/02 13:29:00;;;;;;;6.85;6.15;;;;;;;;;;5007532;28;20229;-77
2024/03/02 13:31:25;;;;;;;7.38;5.85;;;;;;;;;;5021353;28;20602;-77
2024/03/02 13:33:51;;;;;;;8.45;6.63;;;;;;;;;;4990633;28;20657;-76
2024/03/02 13:36:17;;;;;;;7.32;6.53;;;;;;;;;;5007059;28;20224;-76
2024/03/02 13:38:45;;;;;;;6.97;6.28;;;;;;;;;;5000753;28;20244;-77
2024/03/02 13:41:13;;;;;;;7.68;6.30;;;;;;;;;;5003954;28;20230;-77
2024/03/02 13:43:46;;;;;;;6.95;5.97;;;;;;;;;;4959718;28;20960;-78
2024/03/02 13:46:11;;;;;;;7.05;6.20;;;;;;;;;;4988045;28;20352;-80
2024/03/02 13:48:37;;;;;;;7.75;5.28;;;;;;;;;;5006399;28;20237;-79
2024/03/02 13:51:04;;;;;;;6.20;5.60;;;;;;;;;;5010722;28;20225;-78
2024/03/02 13:53:32;;;;;;;6.70;5.63;;;;;;;;;;4992038;28;20237;-78
2024/03/02 13:55:57;;;;;;;6.25;5.60;;;;;;;;;;4993025;28;20252;-78
2024/03/02 13:58:23;;;;;;;6.97;6.07;;;;;;;;;;4980913;28;20242;-79
2024/03/02 14:00:51;;;;;;;10.23;6.82;;;;;;;;;;4997583;28;20224;-79
2024/03/02 14:03:18;;;;;;;8.02;6.45;;;;;;;;;;5005073;28;20222;-79
2024/03/02 14:05:46;;;;;;;7.95;6.35;;;;;;;;;;5008195;28;21014;-79
2024/03/02 14:08:11;;;;;;;7.00;6.13;;;;;;;;;;5021022;28;20299;-79
2024/03/02 14:10:39;;;;;;;7.00;6.30;;;;;;;;;;4991136;28;20272;-77
2024/03/02 14:13:05;;;;;;;6.88;6.13;;;;;;;;;;4973733;28;20697;-77
2024/03/02 14:15:33;;;;;;;7.95;6.13;;;;;;;;;;5010925;28;20232;-77
2024/03/02 14:18:01;;;;;;;6.38;5.78;;;;;;;;;;4963056;28;20237;-77
2024/03/02 14:20:29;;;;;;;8.40;6.82;;;;;;;;;;4980713;28;20221;-79
2024/03/02 14:22:54;;;;;;;6.68;5.97;;;;;;;;;;5025101;28;20225;-78
2024/03/02 14:25:20;;;;;;;6.82;5.68;;;;;;;;;;4994506;28;20229;-78
2024/03/02 14:27:46;;;;;;;6.93;5.90;;;;;;;;;;4962045;28;20339;-79
2024/03/02 14:30:12;;;;;;;6.10;5.50;;;;;;;;;;4981837;28;20217;-79
2024/03/02 14:32:40;;;;;;;6.13;5.53;;;;;;;;;;4997161;28;20633;-78
2024/03/02 14:35:11;;;;;;;5.50;4.75;;;;;;;;;;4997285;28;20236;-79
2024/03/02 14:37:40;;;;;;;5.47;4.97;;;;;;;;;;4997250;28;20327;-78
2024/03/02 14:40:06;;;;;;;10.70;5.72;;;;;;;;;;4997208;28;20232;-78
2024/03/02 14:42:32;;;;;;;7.20;5.63;;;;;;;;;;5031291;28;20255;-79
2024/03/02 14:45:04;;;;;;;6.72;5.88;;;;;;;;;;5012582;28;20251;-79
2024/03/02 14:47:31;;;;;;;6.80;5.95;;;;;;;;;;4988711;28;20860;-79
2024/03/02 14:49:57;;;;;;;7.03;5.75;;;;;;;;;;4979860;28;20217;-78
2024/03/02 14:52:25;;;;;;;6.30;5.70;;;;;;;;;;4973402;28;20352;-79
2024/03/02 14:54:51;;;;;;;6.22;5.20;;;;;;;;;;4993828;28;20225;-79
2024/03/02 14:57:21;;;;;;;10.30;5.78;;;;;;;;;;5009196;28;20220;-79
2024/03/02 14:59:47;;;;;;;5.93;5.32;;;;;;;;;;4987075;28;20271;-78
2024/03/02 15:02:14;;;;;;;7.88;5.20;;;;;;;;;;4977898;28;20213;-79
2024/03/02 15:04:40;;;;;;;6.07;4.75;;;;;;;;;;4982780;28;20370;-79
2024/03/02 15:07:08;;;;;;;5.93;5.32;;;;;;;;;;4977162;28;20229;-79
2024/03/02 15:09:35;;;;;;;6.57;5.43;;;;;;;;;;4998581;28;20315;-78
2024/03/02 15:12:03;;;;;;;5.45;4.95;;;;;;;;;;4981928;28;20280;-79
2024/03/02 15:14:30;;;;;;;7.57;4.75;;;;;;;;;;4980151;28;20786;-78
2024/03/02 15:16:56;;;;;;;4.82;4.28;;;;;;;;;;5000472;28;20220;-79
2024/03/02 15:19:21;;;;;;;4.47;3.97;;;;;;;;;;5010732;28;20228;-79
2024/03/02 15:21:47;;;;;;;4.82;4.32;;;;;;;;;;5009038;28;20241;-79
2024/03/02 15:24:18;;;;;;;4.68;3.47;;;;;;;;;;4997225;28;20245;-78
2024/03/02 15:26:43;;;;;;;3.90;3.50;;;;;;;;;;5014610;28;20905;-77
2024/03/02 15:29:14;;;;;;;4.05;3.58;;;;;;;;;;4997873;28;20236;-78
2024/03/02 15:31:39;;;;;;;4.32;3.92;;;;;;;;;;5007705;28;20231;-79
2024/03/02 15:34:05;;;;;;;5.50;5.00;;;;;;;;;;5022843;28;20394;-79
2024/03/02 15:36:30;;;;;;;4.63;4.07;;;;;;;;;;5009633;28;20707;-79
2024/03/02 15:38:58;;;;;;;5.78;4.30;;;;;;;;;;5009712;28;20231;-79
2024/03/02 15:41:26;;;;;;;5.47;4.35;;;;;;;;;;5007036;28;20221;-79
2024/03/02 15:43:55;;;;;;;6.32;4.43;;;;;;;;;;4997682;28;20225;-80
2024/03/02 15:46:21;;;;;;;4.47;4.07;;;;;;;;;;4999194;28;20287;-79
2024/03/02 15:48:46;;;;;;;4.88;4.38;;;;;;;;;;4993212;28;20253;-79
2024/03/02 15:51:16;;;;;;;5.45;4.47;;;;;;;;;;4992908;28;20237;-79
2024/03/02 15:53:45;;;;;;;5.75;4.63;;;;;;;;;;5027535;28;20226;-80
2024/03/02 15:56:12;;;;;;;6.28;5.00;;;;;;;;;;5007741;28;20578;-80
2024/03/02 15:58:40;;;;;;;5.70;4.85;;;;;;;;;;4998088;28;20237;-80
2024/03/02 16:01:06;;;;;;;5.95;4.70;;;;;;;;;;4989685;28;20268;-80
2024/03/02 16:03:32;;;;;;;5.68;4.95;;;;;;;;;;5002635;28;20584;-79
2024/03/02 16:05:58;;;;;;;6.15;4.97;;;;;;;;;;5001725;28;20224;-80
2024/03/02 16:08:25;;;;;;;6.03;4.45;;;;;;;;;;4995882;28;20263;-79
2024/03/02 16:10:53;;;;;;;5.53;4.43;;;;;;;;;;5002405;28;20228;-79
2024/03/02 16:13:21;;;;;;;5.43;4.82;;;;;;;;;;5007385;28;20283;-79
2024/03/02 16:15:47;;;;;;;5.20;4.15;;;;;;;;;;5017677;28;20229;-79
2024/03/02 16:18:12;;;;;;;4.97;4.43;;;;;;;;;;4998158;28;20233;-79
2024/03/02 16:20:41;;;;;;;5.40;4.57;;;;;;;;;;4993093;28;20739;-78
2024/03/02 16:23:09;;;;;;;5.45;4.22;;;;;;;;;;5015822;28;20233;-78
2024/03/02 16:25:37;;;;;;;5.30;4.65;;;;;;;;;;5012027;28;20236;-78
2024/03/02 16:28:06;;;;;;;5.97;5.03;;;;;;;;;;4995910;28;20222;-78
2024/03/02 16:30:31;;;;;;;6.32;4.40;;;;;;;;;;5009208;28;20229;-78
2024/03/02 16:32:57;;;;;;;6.43;5.75;;;;;;;;;;5015260;28;20239;-78
2024/03/02 16:35:25;;;;;;;4.97;4.47;;;;;;;;;;5012037;28;20229;-78
2024/03/02 16:37:53;;;;;;;4.75;3.95;;;;;;;;;;4994364;28;20233;-78
2024/03/02 16:40:21;;;;;;;5.80;4.37;;;;;;;;;;4993272;28;20243;-79
2024/03/02 16:42:49;;;;;;;6.57;4.37;;;;;;;;;;4995341;28;20252;-79
2024/03/02 16:45:18;;;;;;;6.53;4.53;;;;;;;;;;4993272;28;20314;-79
2024/03/02 16:47:48;;;;;;;5.67;4.40;;;;;;;;;;5008333;28;20280;-78
2024/03/02 16:50:18;;;;;;;4.97;4.33;;;;;;;;;;4987637;28;20221;-79
2024/03/02 16:52:47;;;;;;;7.10;4.57;;;;;;;;;;5006437;28;20232;-79
2024/03/02 16:55:13;;;;;;;4.90;4.40;;;;;;;;;;4990143;28;20233;-79
2024/03/02 16:57:41;;;;;;;5.00;4.50;;;;;;;;;;4993844;28;20314;-78
2024/03/02 17:00:10;;;;;;;4.90;4.33;;;;;;;;;;4988443;28;20790;-79
2024/03/02 17:02:35;;;;;;;5.03;4.23;;;;;;;;;;5007971;28;20690;-79
2024/03/02 17:05:03;;;;;;;5.67;4.67;;;;;;;;;;5006072;28;20225;-78
2024/03/02 17:10:37;;;;;;;4.77;4.07;;;;;;;;;;4916639;28;20220;-80
2024/03/02 17:13:05;;;;;;;5.87;4.13;;;;;;;;;;4933312;28;20231;-79
2024/03/02 17:15:30;;;;;;;5.60;4.23;;;;;;;;;;4938490;28;20222;-81
2024/03/02 17:17:56;;;;;;;6.17;4.27;;;;;;;;;;4912867;29;20231;-80
2024/03/02 17:20:24;;;;;;;7.30;4.13;;;;;;;;;;4919610;29;20320;-79
2024/03/02 17:22:50;;;;;;;5.00;4.03;;;;;;;;;;4919888;29;20235;-80
2024/03/02 17:25:18;;;;;;;4.70;3.87;;;;;;;;;;4916991;28;20239;-78
2024/03/02 17:27:43;;;;;;;4.57;3.60;;;;;;;;;;4906730;29;20242;-80
2024/03/02 17:30:10;;;;;;;4.20;3.77;;;;;;;;;;4910333;28;20291;-85
2024/03/02 17:32:38;;;;;;;3.90;3.33;;;;;;;;;;4906658;28;20236;-87
2024/03/02 17:35:06;;;;;;;3.63;3.20;;;;;;;;;;4928474;28;20251;-85
2024/03/02 17:37:34;;;;;;;4.67;3.67;;;;;;;;;;4927743;29;20223;-84
2024/03/02 17:40:02;;;;;;;6.10;3.43;;;;;;;;;;4903477;29;20223;-86
2024/03/02 17:42:32;;;;;;;4.30;3.47;;;;;;;;;;4924671;28;20681;-86
2024/03/02 17:44:58;;;;;;;4.77;3.37;;;;;;;;;;4920124;29;20228;-86
2024/03/02 17:47:23;;;;;;;3.93;3.13;;;;;;;;;;4918647;28;20290;-87
2024/03/02 17:49:54;;;;;;;3.97;3.03;;;;;;;;;;4932048;29;20224;-87
2024/03/02 17:52:19;;;;;;;3.83;3.03;;;;;;;;;;4925598;28;20231;-86
2024/03/02 17:54:45;;;;;;;5.73;3.33;;;;;;;;;;4930219;28;20246;-86
2024/03/02 17:57:11;;;;;;;4.87;3.70;;;;;;;;;;4927250;28;20242;-87
2024/03/02 17:59:37;;;;;;;4.97;3.70;;;;;;;;;;4935985;28;20247;-86
2024/03/02 18:02:03;;;;;;;4.70;3.90;;;;;;;;;;4940997;28;20215;-87
2024/03/02 18:04:29;;;;;;;4.80;3.87;;;;;;;;;;4939197;29;20231;-86
2024/03/02 18:06:58;;;;;;;3.87;3.50;;;;;;;;;;4915562;29;20224;-87
2024/03/02 18:09:28;;;;;;;5.47;4.00;;;;;;;;;;4925818;28;20287;-84
2024/03/02 18:11:53;;;;;;;4.70;4.03;;;;;;;;;;4908575;29;20228;-88
2024/03/02 18:14:21;;;;;;;5.77;4.43;;;;;;;;;;4931603;28;20222;-86
2024/03/02 18:16:51;;;;;;;5.33;4.57;;;;;;;;;;4898614;29;20216;-86
2024/03/02 18:19:17;;;;;;;5.17;4.57;;;;;;;;;;4897334;29;20243;-85
2024/03/02 18:21:45;;;;;;;6.00;4.67;;;;;;;;;;4941436;29;20223;-85
2024/03/02 18:24:11;;;;;;;6.17;5.30;;;;;;;;;;4912523;28;20450;-86
2024/03/02 18:26:36;;;;;;;7.63;5.20;;;;;;;;;;4927744;29;20322;-87
2024/03/02 18:29:07;;;;;;;6.53;5.53;;;;;;;;;;4947294;28;20620;-87
2024/03/02 18:31:33;;;;;;;8.13;5.83;;;;;;;;;;4927671;29;20223;-86
2024/03/02 18:34:06;;;;;;;9.23;6.80;;;;;;;;;;4932111;29;20279;-86
2024/03/02 18:36:36;;;;;;;7.83;6.77;;;;;;;;;;4928789;29;20254;-84
2024/03/02 18:39:05;;;;;;;9.17;7.13;;;;;;;;;;4919493;28;20223;-87
2024/03/02 18:41:33;;;;;;;9.10;7.20;;;;;;;;;;4929211;29;20265;-87
2024/03/02 18:43:59;;;;;;;8.90;7.57;;;;;;;;;;4945243;29;20263;-85
2024/03/02 18:46:27;;;;;;;8.90;6.80;;;;;;;;;;4938367;28;20297;-85
2024/03/02 18:48:53;;;;;;;8.80;7.63;;;;;;;;;;4923570;29;20647;-87
2024/03/02 18:51:25;;;;;;;9.90;7.63;;;;;;;;;;4910502;28;20224;-88
2024/03/02 18:53:51;;;;;;;10.53;7.93;;;;;;;;;;4929374;29;20250;-86
2024/03/02 18:56:19;;;;;;;13.37;8.70;;;;;;;;;;4916650;28;20223;-86
2024/03/02 18:58:45;;;;;;;11.70;8.93;;;;;;;;;;4920251;29;20288;-86
2024/03/02 19:01:11;;;;;;;10.57;8.73;;;;;;;;;;4941387;28;20709;-86
2024/03/02 19:03:36;;;;;;;12.43;9.50;;;;;;;;;;4912461;29;20231;-85
2024/03/02 19:06:02;;;;;;;14.97;11.60;;;;;;;;;;4903234;29;20231;-87
2024/03/02 19:08:28;;;;;;;12.23;9.90;;;;;;;;;;4917448;29;20724;-86
2024/03/02 19:10:54;;;;;;;11.60;9.90;;;;;;;;;;4895685;29;20215;-87
2024/03/02 19:13:19;;;;;;;12.97;10.00;;;;;;;;;;4923775;28;20239;-86
2024/03/02 19:15:45;;;;;;;13.50;9.77;;;;;;;;;;4916108;29;20219;-87
2024/03/02 19:18:11;;;;;;;14.27;10.80;;;;;;;;;;4925002;28;20241;-86
2024/03/02 19:20:36;;;;;;;12.73;10.37;;;;;;;;;;4907422;29;20247;-85
2024/03/02 19:23:02;;;;;;;13.70;10.37;;;;;;;;;;4916144;29;20223;-87
2024/03/02 19:25:28;;;;;;;15.43;11.67;;;;;;;;;;4930352;28;20219;-87
2024/03/02 19:27:54;;;;;;;13.63;11.53;;;;;;;;;;4927591;29;20263;-86
2024/03/02 19:30:22;;;;;;;14.50;12.13;;;;;;;;;;4913263;28;20295;-85
2024/03/02 19:32:47;;;;;;;15.57;11.60;;;;;;;;;;4925293;29;20220;-86
2024/03/02 19:35:13;;;;;;;13.97;11.47;;;;;;;;;;4925550;28;20864;-87
2024/03/02 19:37:39;;;;;;;13.97;11.43;;;;;;;;;;4907688;29;20216;-87
2024/03/02 19:40:06;;;;;;;14.63;11.87;;;;;;;;;;4913632;28;20736;-88
2024/03/02 19:42:31;;;;;;;16.73;12.10;;;;;;;;;;4921734;29;20298;-87
2024/03/02 19:44:59;;;;;;;16.10;12.70;;;;;;;;;;4924518;29;20251;-86
2024/03/02 19:47:24;;;;;;;16.83;12.50;;;;;;;;;;4936113;29;20227;-86
2024/03/02 19:49:52;;;;;;;16.63;12.10;;;;;;;;;;4904405;29;20226;-86
2024/03/02 19:52:18;;;;;;;16.17;12.57;;;;;;;;;;4925411;28;20271;-87
2024/03/02 19:54:43;;;;;;;16.90;12.67;;;;;;;;;;4906493;29;20685;-86
2024/03/02 19:57:12;;;;;;;17.83;13.30;;;;;;;;;;4925405;28;20223;-86
2024/03/02 19:59:40;;;;;;;19.43;14.07;;;;;;;;;;4913224;29;20603;-86
2024/03/02 20:02:12;;;;;;;15.43;13.53;;;;;;;;;;4940694;28;20259;-87
2024/03/02 20:04:38;;;;;;;19.43;14.23;;;;;;;;;;4935987;29;20216;-87
2024/03/02 20:07:04;;;;;;;17.47;14.13;;;;;;;;;;4923384;28;20702;-86
2024/03/02 20:09:30;;;;;;;16.67;13.93;;;;;;;;;;4905493;29;20238;-86
2024/03/02 20:11:59;;;;;;;17.83;14.83;;;;;;;;;;4894754;29;20231;-87
2024/03/02 20:14:29;;;;;;;18.53;14.70;;;;;;;;;;4907771;29;20230;-87
2024/03/02 20:16:56;;;;;;;17.53;14.07;;;;;;;;;;4925690;29;20224;-86
2024/03/02 20:19:24;;;;;;;17.67;14.13;;;;;;;;;;4904266;28;20235;-87
2024/03/02 20:21:54;;;;;;;17.67;14.63;;;;;;;;;;4924856;29;20223;-87
2024/03/02 20:24:20;;;;;;;17.87;14.63;;;;;;;;;;4950548;28;20374;-85
2024/03/02 20:26:50;;;;;;;20.53;15.13;;;;;;;;;;4929095;28;20263;-86
2024/03/02 20:29:18;;;;;;;20.90;15.47;;;;;;;;;;4931744;28;20310;-86
2024/03/02 20:31:44;;;;;;;19.20;15.93;;;;;;;;;;4905058;29;20250;-87
2024/03/02 20:34:14;;;;;;;22.47;16.00;;;;;;;;;;4907857;28;20607;-87
2024/03/02 20:36:40;;;;;;;20.73;16.27;;;;;;;;;;4918271;29;20234;-87
2024/03/02 20:39:06;;;;;;;20.40;16.93;;;;;;;;;;4916898;28;20220;-87
2024/03/02 20:41:31;;;;;;;24.23;17.00;;;;;;;;;;4887408;29;20341;-87
2024/03/02 20:44:02;;;;;;;21.17;16.73;;;;;;;;;;4905041;29;20238;-86
2024/03/02 20:46:28;;;;;;;20.10;16.40;;;;;;;;;;4921954;29;20333;-87
2024/03/02 20:48:53;;;;;;;24.20;17.30;;;;;;;;;;4903172;29;20230;-87
2024/03/02 20:51:19;;;;;;;21.20;17.13;;;;;;;;;;4909319;28;20232;-87
2024/03/02 20:53:44;;;;;;;21.90;17.10;;;;;;;;;;4916235;29;20215;-87
2024/03/02 20:56:12;;;;;;;21.00;17.93;;;;;;;;;;4901637;28;20223;-88
2024/03/02 20:58:37;;;;;;;19.27;16.73;;;;;;;;;;4903184;29;20226;-87
2024/03/02 21:01:05;;;;;;;22.80;17.73;;;;;;;;;;4920301;28;20225;-87
2024/03/02 21:03:33;;;;;;;22.07;17.83;;;;;;;;;;4922099;29;20275;-87
2024/03/02 21:06:00;;;;;;;22.03;18.40;;;;;;;;;;4933833;29;20238;-86
2024/03/02 21:08:28;;;;;;;21.63;18.43;;;;;;;;;;4925183;29;20291;-86
2024/03/02 21:10:54;;;;;;;21.87;18.10;;;;;;;;;;4924392;28;20267;-88
2024/03/02 21:13:24;;;;;;;23.97;18.30;;;;;;;;;;4907172;28;20231;-87
2024/03/02 21:15:52;;;;;;;22.17;17.43;;;;;;;;;;4904918;29;20306;-87
2024/03/02 21:18:17;;;;;;;21.60;17.63;;;;;;;;;;4911062;28;20219;-87
2024/03/02 21:20:43;;;;;;;22.73;18.00;;;;;;;;;;4885058;29;20230;-87
2024/03/02 21:23:11;;;;;;;24.27;18.67;;;;;;;;;;4907767;28;20245;-87
2024/03/02 21:25:39;;;;;;;22.60;18.17;;;;;;;;;;4904810;29;20247;-88
2024/03/02 21:28:07;;;;;;;23.50;18.67;;;;;;;;;;4922532;28;20788;-86
2024/03/02 21:30:38;;;;;;;24.20;18.90;;;;;;;;;;4937041;28;20231;-87
2024/03/02 21:33:04;;;;;;;21.43;17.87;;;;;;;;;;4896649;28;20223;-86
2024/03/02 21:35:31;;;;;;;24.60;18.93;;;;;;;;;;4909233;29;20219;-87
2024/03/02 21:38:02;;;;;;;22.97;19.07;;;;;;;;;;4915704;29;20251;-86
2024/03/02 21:40:31;;;;;;;23.53;18.87;;;;;;;;;;4905929;29;20243;-87
2024/03/02 21:42:56;;;;;;;24.20;18.50;;;;;;;;;;4890016;29;20603;-86
2024/03/02 21:45:22;;;;;;;24.17;18.90;;;;;;;;;;4909411;28;20258;-86
2024/03/02 21:47:50;;;;;;;23.73;19.07;;;;;;;;;;4919576;29;20228;-87
2024/03/02 21:50:18;;;;;;;22.97;17.83;;;;;;;;;;4904577;28;20594;-87
2024/03/02 21:52:45;;;;;;;23.03;18.77;;;;;;;;;;4909264;29;20235;-86
2024/03/02 21:55:12;;;;;;;24.13;19.33;;;;;;;;;;4930177;28;20649;-86
2024/03/02 21:57:41;;;;;;;24.43;18.17;;;;;;;;;;4924965;29;20233;-85
2024/03/02 22:00:08;;;;;;;25.40;19.70;;;;;;;;;;4934111;28;20231;-87
2024/03/02 22:02:40;;;;;;;24.87;18.87;;;;;;;;;;4926136;29;20226;-87
2024/03/02 22:05:07;;;;;;;26.63;19.73;;;;;;;;;;4927804;28;20840;-86
2024/03/02 22:07:38;;;;;;;26.73;19.97;;;;;;;;;;4911427;29;20239;-86
2024/03/02 22:10:06;;;;;;;25.50;19.13;;;;;;;;;;4903486;28;20688;-85
2024/03/02 22:12:32;;;;;;;24.67;19.70;;;;;;;;;;4917681;29;20259;-86
2024/03/02 22:14:57;;;;;;;23.00;19.70;;;;;;;;;;4907151;29;20250;-87
2024/03/02 22:17:27;;;;;;;25.70;19.93;;;;;;;;;;4893545;28;20224;-87
2024/03/02 22:19:53;;;;;;;26.43;20.23;;;;;;;;;;4922276;29;20247;-86
2024/03/02 22:22:19;;;;;;;24.27;19.60;;;;;;;;;;4904018;28;20227;-86
2024/03/02 22:24:45;;;;;;;26.33;20.37;;;;;;;;;;4923530;29;20223;-85
2024/03/02 22:27:13;;;;;;;24.83;19.40;;;;;;;;;;4927173;28;20318;-85
2024/03/02 22:29:41;;;;;;;25.30;19.77;;;;;;;;;;4926989;29;20294;-86
2024/03/02 22:32:07;;;;;;;25.27;20.47;;;;;;;;;;4929258;28;20239;-85
2024/03/02 22:34:35;;;;;;;24.87;20.20;;;;;;;;;;4909149;29;20258;-86
2024/03/02 22:37:00;;;;;;;24.50;19.40;;;;;;;;;;4893839;29;20212;-85
2024/03/02 22:39:29;;;;;;;25.30;19.80;;;;;;;;;;4930195;28;20232;-86
2024/03/02 22:41:54;;;;;;;25.90;20.00;;;;;;;;;;4906919;29;20992;-86
2024/03/02 22:44:23;;;;;;;25.07;20.70;;;;;;;;;;4913220;28;20226;-85
2024/03/02 22:46:49;;;;;;;27.33;21.17;;;;;;;;;;4891183;29;20242;-86
2024/03/02 22:49:17;;;;;;;25.63;19.57;;;;;;;;;;4907172;29;20228;-85
2024/03/02 22:51:47;;;;;;;24.40;19.67;;;;;;;;;;4923319;29;20842;-85
2024/03/02 22:54:15;;;;;;;26.50;20.23;;;;;;;;;;4936818;28;20220;-86
2024/03/02 22:56:40;;;;;;;23.47;19.13;;;;;;;;;;4922809;29;20608;-85
2024/03/02 22:59:08;;;;;;;25.13;20.17;;;;;;;;;;4908344;28;20225;-85
2024/03/02 23:01:36;;;;;;;26.93;21.00;;;;;;;;;;4908199;29;20223;-86
2024/03/02 23:04:03;;;;;;;26.40;20.77;;;;;;;;;;4926342;28;20246;-86
2024/03/02 23:06:31;;;;;;;26.13;19.57;;;;;;;;;;4895537;29;20585;-88
2024/03/02 23:09:01;;;;;;;27.33;20.00;;;;;;;;;;4905420;29;20224;-87
2024/03/02 23:11:27;;;;;;;27.63;21.10;;;;;;;;;;4916250;28;20219;-86
2024/03/02 23:13:52;;;;;;;24.47;20.20;;;;;;;;;;4897046;29;20315;-87
2024/03/02 23:16:18;;;;;;;28.70;21.33;;;;;;;;;;4931195;28;20234;-86
2024/03/02 23:18:43;;;;;;;29.47;21.30;;;;;;;;;;4891561;29;20227;-86
2024/03/02 23:21:09;;;;;;;28.20;21.77;;;;;;;;;;4894543;28;20220;-85
2024/03/02 23:23:39;;;;;;;26.40;20.23;;;;;;;;;;4929898;29;20295;-86
2024/03/02 23:26:07;;;;;;;29.83;20.00;;;;;;;;;;4924180;28;20235;-87
2024/03/02 23:28:33;;;;;;;27.17;20.93;;;;;;;;;;4920539;29;20244;-86
2024/03/02 23:30:58;;;;;;;28.00;21.17;;;;;;;;;;4893640;29;20290;-86
2024/03/02 23:33:26;;;;;;;28.07;20.80;;;;;;;;;;4915913;28;20231;-87
2024/03/02 23:35:54;;;;;;;27.73;20.90;;;;;;;;;;4910826;29;20318;-86
2024/03/02 23:38:25;;;;;;;30.30;21.03;;;;;;;;;;4926778;28;20223;-85
2024/03/02 23:41:07;;;;;;;28.83;21.13;;;;;;;;;;4919048;29;20228;-85
2024/03/02 23:43:36;;;;;;;26.07;21.40;;;;;;;;;;4925763;29;20246;-86
2024/03/02 23:46:01;;;;;;;27.77;21.13;;;;;;;;;;4938299;29;20218;-86
2024/03/02 23:48:27;;;;;;;29.87;22.20;;;;;;;;;;4902435;29;20231;-86
2024/03/02 23:50:55;;;;;;;27.63;20.93;;;;;;;;;;4915659;29;20223;-85
2024/03/02 23:53:20;;;;;;;25.30;20.93;;;;;;;;;;4912036;28;20286;-85
2024/03/02 23:55:46;;;;;;;26.47;20.33;;;;;;;;;;4922625;29;20227;-87